Seabreeze — 9HA3104 — position and weather

sailwx.info

Track history (hours):
 
Tides and Currents Weather Stations Pressure Air Temp Water Temp Dewpoint Dewpoint Depression Visibility Wind Speed Wind Dir Waves Ship Positions

Seabreeze

Last reported at 2017-Sep-21 23:58 UTC. Time now 2017-Sep-26 16:30 UTC.
Position N 37°42' E 025°42'.

Length 186 m; draft 7 m.

Type: Ship. MMSI: 229145000.

Date/timePositionNaut miles runAvg speedWind from/ knotsBaromVisibWave heightAir tempDewpointWater temp
2017-Sep-21 23:58N 37°42' E 025°42'614.1
2017-Sep-21 23:30N 37°35' E 025°44'714.6
2017-Sep-21 23:00N 37°29' E 025°49'714.4
2017-Sep-21 22:30N 37°23' E 025°53'29012.8
2017-Sep-20 23:45N 33°13' E 028°53'2913.7
2017-Sep-20 21:37N 32°45' E 029°05'213.5
2017-Sep-20 21:28N 32°43' E 029°06'613.4
2017-Sep-20 21:01N 32°37' E 029°08'1613.5
2017-Sep-20 19:49N 32°23' E 029°15'413.3
2017-Sep-20 19:31N 32°19' E 029°17'713.1
2017-Sep-20 18:57N 32°12' E 029°20'813.1
2017-Sep-20 18:20N 32°04' E 029°24'513.0
2017-Sep-20 17:56N 31°59' E 029°26'513.0
2017-Sep-20 17:31N 31°54' E 029°28'  
2017-Sep-14 15:01N 33°14' E 028°51'012.4
2017-Sep-14 15:00N 33°15' E 028°51'28513.1
2017-Sep-13 17:14N 37°21' E 025°55'313.6
2017-Sep-13 17:00N 37°24' E 025°53'713.6
2017-Sep-13 16:30N 37°29' E 025°48'713.7
2017-Sep-13 16:00N 37°35' E 025°44'713.8
2017-Sep-13 15:30N 37°42' E 025°44'12313.2
2017-Sep-13 06:08N 39°46' E 025°45'1512.9
2017-Sep-13 04:57N 39°59' E 025°56'613.0
2017-Sep-13 04:29N 40°01' E 026°03'138 6.1
2017-Sep-12 05:48N 40°55' E 028°51'3 9.9
2017-Sep-12 05:27N 40°57' E 028°55'1 3.2
2017-Sep-12 05:00N 40°58' E 028°56'0 0.6
2017-Sep-12 04:30N 40°58' E 028°56'1 1.2
2017-Sep-12 03:51N 40°58' E 028°57'1 2.2
2017-Sep-12 03:29N 40°59' E 028°58'16 9.3
2017-Sep-12 01:44N 41°13' E 029°07'2 6.4
2017-Sep-12 01:30N 41°15' E 029°08'1310.3
2017-Sep-12 00:15N 41°27' E 029°03'  
Track history (hours):
 
Tides and Currents Weather Stations Pressure Air Temp Water Temp Dewpoint Dewpoint Depression Visibility Wind Speed Wind Dir Waves Ship Positions

Seabreeze

Last reported at 2017-Sep-21 23:58 UTC. Time now 2017-Sep-26 16:30 UTC.
Position N 37°42' E 025°42'.

Length 186 m; draft 7 m.

Type: Ship. MMSI: 229145000.

Date/timePositionNaut miles runAvg speedWind from/ knotsBaromVisibWave heightAir tempDewpointWater temp
2017-Sep-21 23:58N 37°42' E 025°42'614.1
2017-Sep-21 23:30N 37°35' E 025°44'714.6
2017-Sep-21 23:00N 37°29' E 025°49'714.4
2017-Sep-21 22:30N 37°23' E 025°53'29012.8
2017-Sep-20 23:45N 33°13' E 028°53'2913.7
2017-Sep-20 21:37N 32°45' E 029°05'213.5
2017-Sep-20 21:28N 32°43' E 029°06'613.4
2017-Sep-20 21:01N 32°37' E 029°08'1613.5
2017-Sep-20 19:49N 32°23' E 029°15'413.3
2017-Sep-20 19:31N 32°19' E 029°17'713.1
2017-Sep-20 18:57N 32°12' E 029°20'813.1
2017-Sep-20 18:20N 32°04' E 029°24'513.0
2017-Sep-20 17:56N 31°59' E 029°26'513.0
2017-Sep-20 17:31N 31°54' E 029°28'  
2017-Sep-14 15:01N 33°14' E 028°51'012.4
2017-Sep-14 15:00N 33°15' E 028°51'28513.1
2017-Sep-13 17:14N 37°21' E 025°55'313.6
2017-Sep-13 17:00N 37°24' E 025°53'713.6
2017-Sep-13 16:30N 37°29' E 025°48'713.7
2017-Sep-13 16:00N 37°35' E 025°44'713.8
2017-Sep-13 15:30N 37°42' E 025°44'12313.2
2017-Sep-13 06:08N 39°46' E 025°45'1512.9
2017-Sep-13 04:57N 39°59' E 025°56'613.0
2017-Sep-13 04:29N 40°01' E 026°03'138 6.1
2017-Sep-12 05:48N 40°55' E 028°51'3 9.9
2017-Sep-12 05:27N 40°57' E 028°55'1 3.2
2017-Sep-12 05:00N 40°58' E 028°56'0 0.6
2017-Sep-12 04:30N 40°58' E 028°56'1 1.2
2017-Sep-12 03:51N 40°58' E 028°57'1 2.2
2017-Sep-12 03:29N 40°59' E 028°58'16 9.3
2017-Sep-12 01:44N 41°13' E 029°07'2 6.4
2017-Sep-12 01:30N 41°15' E 029°08'1310.3
2017-Sep-12 00:15N 41°27' E 029°03'  

Dump ship's entire track history